sensor_id;sensor_type;location;lat;lon;timestamp;P1;durP1;ratioP1;P2;durP2;ratioP2
9823;SDS011;4951;50.778;7.196;2022-07-29T00:01:09;6.97;;;2.20;;
9823;SDS011;4951;50.778;7.196;2022-07-29T00:03:41;3.17;;;2.20;;
9823;SDS011;4951;50.778;7.196;2022-07-29T00:06:08;3.00;;;2.07;;
9823;SDS011;4951;50.778;7.196;2022-07-29T00:08:35;4.40;;;2.13;;
9823;SDS011;4951;50.778;7.196;2022-07-29T00:11:02;5.43;;;2.40;;
9823;SDS011;4951;50.778;7.196;2022-07-29T00:13:29;4.23;;;2.50;;
9823;SDS011;4951;50.778;7.196;2022-07-29T00:15:57;3.50;;;2.10;;
9823;SDS011;4951;50.778;7.196;2022-07-29T00:18:25;3.93;;;1.87;;
9823;SDS011;4951;50.778;7.196;2022-07-29T00:20:52;4.17;;;2.17;;
9823;SDS011;4951;50.778;7.196;2022-07-29T00:23:19;3.83;;;1.83;;
9823;SDS011;4951;50.778;7.196;2022-07-29T00:25:46;3.70;;;1.77;;
9823;SDS011;4951;50.778;7.196;2022-07-29T00:28:14;2.33;;;1.93;;
9823;SDS011;4951;50.778;7.196;2022-07-29T00:30:41;3.73;;;2.03;;
9823;SDS011;4951;50.778;7.196;2022-07-29T00:33:08;4.10;;;2.37;;
9823;SDS011;4951;50.778;7.196;2022-07-29T00:35:37;4.70;;;2.40;;
9823;SDS011;4951;50.778;7.196;2022-07-29T00:38:08;3.07;;;1.97;;
9823;SDS011;4951;50.778;7.196;2022-07-29T00:40:35;2.43;;;1.73;;
9823;SDS011;4951;50.778;7.196;2022-07-29T00:43:03;3.63;;;1.90;;
9823;SDS011;4951;50.778;7.196;2022-07-29T00:45:30;2.47;;;2.00;;
9823;SDS011;4951;50.778;7.196;2022-07-29T00:47:57;3.83;;;1.83;;
9823;SDS011;4951;50.778;7.196;2022-07-29T00:50:24;2.80;;;1.80;;
9823;SDS011;4951;50.778;7.196;2022-07-29T00:52:53;4.47;;;2.10;;
9823;SDS011;4951;50.778;7.196;2022-07-29T00:55:20;4.13;;;2.07;;
9823;SDS011;4951;50.778;7.196;2022-07-29T00:57:47;3.10;;;2.10;;
9823;SDS011;4951;50.778;7.196;2022-07-29T01:00:17;3.87;;;2.10;;
9823;SDS011;4951;50.778;7.196;2022-07-29T01:02:45;4.00;;;2.00;;
9823;SDS011;4951;50.778;7.196;2022-07-29T01:05:16;3.73;;;2.00;;
9823;SDS011;4951;50.778;7.196;2022-07-29T01:07:44;4.00;;;2.20;;
9823;SDS011;4951;50.778;7.196;2022-07-29T01:10:15;4.30;;;1.90;;
9823;SDS011;4951;50.778;7.196;2022-07-29T01:12:44;3.70;;;2.33;;
9823;SDS011;4951;50.778;7.196;2022-07-29T01:15:15;4.10;;;2.40;;
9823;SDS011;4951;50.778;7.196;2022-07-29T01:17:43;2.40;;;2.20;;
9823;SDS011;4951;50.778;7.196;2022-07-29T01:20:18;3.43;;;2.03;;
9823;SDS011;4951;50.778;7.196;2022-07-29T01:22:56;3.50;;;2.00;;
9823;SDS011;4951;50.778;7.196;2022-07-29T01:26:06;4.60;;;2.27;;
9823;SDS011;4951;50.778;7.196;2022-07-29T01:31:47;4.03;;;2.30;;
9823;SDS011;4951;50.778;7.196;2022-07-29T01:34:21;3.17;;;2.00;;
9823;SDS011;4951;50.778;7.196;2022-07-29T01:36:53;4.20;;;2.20;;
9823;SDS011;4951;50.778;7.196;2022-07-29T01:39:30;4.10;;;2.10;;
9823;SDS011;4951;50.778;7.196;2022-07-29T01:41:59;3.57;;;2.03;;
9823;SDS011;4951;50.778;7.196;2022-07-29T01:44:34;6.03;;;2.13;;
9823;SDS011;4951;50.778;7.196;2022-07-29T01:47:09;3.67;;;1.90;;
9823;SDS011;4951;50.778;7.196;2022-07-29T01:49:41;4.37;;;2.33;;
9823;SDS011;4951;50.778;7.196;2022-07-29T01:52:23;2.93;;;1.70;;
9823;SDS011;4951;50.778;7.196;2022-07-29T01:54:58;4.50;;;2.00;;
9823;SDS011;4951;50.778;7.196;2022-07-29T01:57:28;4.23;;;2.10;;
9823;SDS011;4951;50.778;7.196;2022-07-29T01:59:58;3.80;;;2.23;;
9823;SDS011;4951;50.778;7.196;2022-07-29T02:02:37;3.57;;;2.10;;
9823;SDS011;4951;50.778;7.196;2022-07-29T02:05:06;3.23;;;2.20;;
9823;SDS011;4951;50.778;7.196;2022-07-29T02:07:37;5.03;;;2.30;;
9823;SDS011;4951;50.778;7.196;2022-07-29T02:10:05;2.70;;;2.00;;
9823;SDS011;4951;50.778;7.196;2022-07-29T02:12:35;4.23;;;2.30;;
9823;SDS011;4951;50.778;7.196;2022-07-29T02:15:06;7.07;;;2.40;;
9823;SDS011;4951;50.778;7.196;2022-07-29T02:17:41;4.47;;;2.30;;
9823;SDS011;4951;50.778;7.196;2022-07-29T02:20:10;2.60;;;2.07;;
9823;SDS011;4951;50.778;7.196;2022-07-29T02:22:38;2.73;;;1.80;;
9823;SDS011;4951;50.778;7.196;2022-07-29T02:25:07;2.80;;;2.30;;
9823;SDS011;4951;50.778;7.196;2022-07-29T02:27:36;2.93;;;2.40;;
9823;SDS011;4951;50.778;7.196;2022-07-29T02:30:07;2.70;;;2.20;;
9823;SDS011;4951;50.778;7.196;2022-07-29T02:32:36;4.93;;;2.27;;
9823;SDS011;4951;50.778;7.196;2022-07-29T02:35:06;3.37;;;2.43;;
9823;SDS011;4951;50.778;7.196;2022-07-29T02:37:35;5.50;;;2.80;;
9823;SDS011;4951;50.778;7.196;2022-07-29T02:40:03;3.47;;;2.50;;
9823;SDS011;4951;50.778;7.196;2022-07-29T02:42:32;7.50;;;2.40;;
9823;SDS011;4951;50.778;7.196;2022-07-29T02:45:01;2.80;;;2.20;;
9823;SDS011;4951;50.778;7.196;2022-07-29T02:47:32;3.80;;;2.53;;
9823;SDS011;4951;50.778;7.196;2022-07-29T02:50:04;3.70;;;2.37;;
9823;SDS011;4951;50.778;7.196;2022-07-29T02:52:37;3.27;;;2.07;;
9823;SDS011;4951;50.778;7.196;2022-07-29T02:55:10;3.87;;;2.47;;
9823;SDS011;4951;50.778;7.196;2022-07-29T02:57:41;2.47;;;2.13;;
9823;SDS011;4951;50.778;7.196;2022-07-29T03:00:10;2.60;;;2.10;;
9823;SDS011;4951;50.778;7.196;2022-07-29T03:02:42;3.60;;;2.43;;
9823;SDS011;4951;50.778;7.196;2022-07-29T03:05:12;2.57;;;2.20;;
9823;SDS011;4951;50.778;7.196;2022-07-29T03:07:43;4.17;;;2.10;;
9823;SDS011;4951;50.778;7.196;2022-07-29T03:10:13;2.70;;;2.10;;
9823;SDS011;4951;50.778;7.196;2022-07-29T03:12:40;3.63;;;2.10;;
9823;SDS011;4951;50.778;7.196;2022-07-29T03:15:08;5.90;;;2.10;;
9823;SDS011;4951;50.778;7.196;2022-07-29T03:17:36;3.33;;;2.23;;
9823;SDS011;4951;50.778;7.196;2022-07-29T03:20:07;4.63;;;2.00;;
9823;SDS011;4951;50.778;7.196;2022-07-29T03:22:38;2.57;;;2.07;;
9823;SDS011;4951;50.778;7.196;2022-07-29T03:25:08;4.83;;;2.60;;
9823;SDS011;4951;50.778;7.196;2022-07-29T03:27:36;2.63;;;2.17;;
9823;SDS011;4951;50.778;7.196;2022-07-29T03:30:03;3.33;;;2.30;;
9823;SDS011;4951;50.778;7.196;2022-07-29T03:32:32;2.60;;;2.10;;
9823;SDS011;4951;50.778;7.196;2022-07-29T03:34:59;2.77;;;1.90;;
9823;SDS011;4951;50.778;7.196;2022-07-29T03:37:27;3.17;;;2.20;;
9823;SDS011;4951;50.778;7.196;2022-07-29T03:39:56;3.80;;;2.10;;
9823;SDS011;4951;50.778;7.196;2022-07-29T03:42:24;5.03;;;2.40;;
9823;SDS011;4951;50.778;7.196;2022-07-29T03:44:54;4.63;;;2.33;;
9823;SDS011;4951;50.778;7.196;2022-07-29T03:47:24;4.40;;;2.60;;
9823;SDS011;4951;50.778;7.196;2022-07-29T03:49:54;5.23;;;2.33;;
9823;SDS011;4951;50.778;7.196;2022-07-29T03:52:26;3.23;;;2.33;;
9823;SDS011;4951;50.778;7.196;2022-07-29T03:54:54;5.23;;;2.53;;
9823;SDS011;4951;50.778;7.196;2022-07-29T03:57:23;3.77;;;2.33;;
9823;SDS011;4951;50.778;7.196;2022-07-29T03:59:53;4.57;;;2.23;;
9823;SDS011;4951;50.778;7.196;2022-07-29T04:02:21;2.80;;;2.40;;
9823;SDS011;4951;50.778;7.196;2022-07-29T04:04:49;4.23;;;2.63;;
9823;SDS011;4951;50.778;7.196;2022-07-29T04:07:16;4.63;;;2.30;;
9823;SDS011;4951;50.778;7.196;2022-07-29T04:09:44;3.10;;;2.17;;
9823;SDS011;4951;50.778;7.196;2022-07-29T04:12:11;3.23;;;2.50;;
9823;SDS011;4951;50.778;7.196;2022-07-29T04:14:38;4.50;;;2.30;;
9823;SDS011;4951;50.778;7.196;2022-07-29T04:17:05;3.90;;;2.53;;
9823;SDS011;4951;50.778;7.196;2022-07-29T04:19:33;3.10;;;2.30;;
9823;SDS011;4951;50.778;7.196;2022-07-29T04:22:00;4.13;;;2.40;;
9823;SDS011;4951;50.778;7.196;2022-07-29T04:24:27;5.43;;;2.73;;
9823;SDS011;4951;50.778;7.196;2022-07-29T04:26:56;3.77;;;2.50;;
9823;SDS011;4951;50.778;7.196;2022-07-29T04:29:23;3.27;;;2.27;;
9823;SDS011;4951;50.778;7.196;2022-07-29T04:31:50;3.63;;;2.50;;
9823;SDS011;4951;50.778;7.196;2022-07-29T04:34:17;4.80;;;2.50;;
9823;SDS011;4951;50.778;7.196;2022-07-29T04:36:44;3.07;;;2.57;;
9823;SDS011;4951;50.778;7.196;2022-07-29T04:39:11;3.23;;;2.30;;
9823;SDS011;4951;50.778;7.196;2022-07-29T04:41:38;4.10;;;2.77;;
9823;SDS011;4951;50.778;7.196;2022-07-29T04:44:06;4.13;;;2.83;;
9823;SDS011;4951;50.778;7.196;2022-07-29T04:46:33;4.40;;;2.50;;
9823;SDS011;4951;50.778;7.196;2022-07-29T04:49:01;4.00;;;2.30;;
9823;SDS011;4951;50.778;7.196;2022-07-29T04:51:29;5.90;;;2.80;;
9823;SDS011;4951;50.778;7.196;2022-07-29T04:53:56;4.20;;;2.77;;
9823;SDS011;4951;50.778;7.196;2022-07-29T04:56:23;3.50;;;2.70;;
9823;SDS011;4951;50.778;7.196;2022-07-29T04:58:50;4.73;;;2.50;;
9823;SDS011;4951;50.778;7.196;2022-07-29T05:01:19;4.10;;;2.77;;
9823;SDS011;4951;50.778;7.196;2022-07-29T05:03:46;4.40;;;2.33;;
9823;SDS011;4951;50.778;7.196;2022-07-29T05:06:13;3.00;;;2.67;;
9823;SDS011;4951;50.778;7.196;2022-07-29T05:08:41;4.57;;;2.63;;
9823;SDS011;4951;50.778;7.196;2022-07-29T05:11:08;5.80;;;2.27;;
9823;SDS011;4951;50.778;7.196;2022-07-29T05:13:35;7.13;;;2.83;;
9823;SDS011;4951;50.778;7.196;2022-07-29T05:16:02;6.23;;;2.70;;
9823;SDS011;4951;50.778;7.196;2022-07-29T05:18:31;3.57;;;2.20;;
9823;SDS011;4951;50.778;7.196;2022-07-29T05:20:58;5.40;;;2.97;;
9823;SDS011;4951;50.778;7.196;2022-07-29T05:23:25;5.73;;;2.70;;
9823;SDS011;4951;50.778;7.196;2022-07-29T05:25:52;5.33;;;2.70;;
9823;SDS011;4951;50.778;7.196;2022-07-29T05:28:19;3.70;;;2.53;;
9823;SDS011;4951;50.778;7.196;2022-07-29T05:30:47;3.23;;;2.40;;
9823;SDS011;4951;50.778;7.196;2022-07-29T05:33:14;6.50;;;2.13;;
9823;SDS011;4951;50.778;7.196;2022-07-29T05:35:43;4.83;;;2.53;;
9823;SDS011;4951;50.778;7.196;2022-07-29T05:38:10;9.20;;;3.00;;
9823;SDS011;4951;50.778;7.196;2022-07-29T05:40:37;4.70;;;2.73;;
9823;SDS011;4951;50.778;7.196;2022-07-29T05:43:04;7.27;;;3.00;;
9823;SDS011;4951;50.778;7.196;2022-07-29T05:45:32;4.20;;;2.43;;
9823;SDS011;4951;50.778;7.196;2022-07-29T05:47:59;6.00;;;3.20;;
9823;SDS011;4951;50.778;7.196;2022-07-29T05:50:26;5.07;;;2.33;;
9823;SDS011;4951;50.778;7.196;2022-07-29T05:52:54;3.87;;;2.57;;
9823;SDS011;4951;50.778;7.196;2022-07-29T05:55:21;5.57;;;2.47;;
9823;SDS011;4951;50.778;7.196;2022-07-29T05:57:48;4.87;;;2.23;;
9823;SDS011;4951;50.778;7.196;2022-07-29T06:00:16;5.03;;;2.17;;
9823;SDS011;4951;50.778;7.196;2022-07-29T06:02:43;7.47;;;2.50;;
9823;SDS011;4951;50.778;7.196;2022-07-29T06:05:11;5.47;;;2.10;;
9823;SDS011;4951;50.778;7.196;2022-07-29T06:07:38;5.32;;;2.60;;
9823;SDS011;4951;50.778;7.196;2022-07-29T06:10:07;4.25;;;2.28;;
9823;SDS011;4951;50.778;7.196;2022-07-29T06:12:35;5.50;;;2.43;;
9823;SDS011;4951;50.778;7.196;2022-07-29T06:15:03;4.50;;;2.65;;
9823;SDS011;4951;50.778;7.196;2022-07-29T06:17:31;4.43;;;2.07;;
9823;SDS011;4951;50.778;7.196;2022-07-29T06:19:58;3.55;;;2.00;;
9823;SDS011;4951;50.778;7.196;2022-07-29T06:22:25;4.85;;;2.38;;
9823;SDS011;4951;50.778;7.196;2022-07-29T06:24:52;3.97;;;2.27;;
9823;SDS011;4951;50.778;7.196;2022-07-29T06:27:23;4.78;;;2.45;;
9823;SDS011;4951;50.778;7.196;2022-07-29T06:29:50;6.25;;;2.58;;
9823;SDS011;4951;50.778;7.196;2022-07-29T06:32:18;7.80;;;2.50;;
9823;SDS011;4951;50.778;7.196;2022-07-29T06:34:45;6.35;;;2.75;;
9823;SDS011;4951;50.778;7.196;2022-07-29T06:37:12;4.80;;;2.30;;
9823;SDS011;4951;50.778;7.196;2022-07-29T06:39:39;8.38;;;2.97;;
9823;SDS011;4951;50.778;7.196;2022-07-29T06:42:06;6.15;;;2.40;;
9823;SDS011;4951;50.778;7.196;2022-07-29T06:44:36;5.65;;;2.55;;
9823;SDS011;4951;50.778;7.196;2022-07-29T06:47:03;4.30;;;2.45;;
9823;SDS011;4951;50.778;7.196;2022-07-29T06:49:30;6.15;;;2.53;;
9823;SDS011;4951;50.778;7.196;2022-07-29T06:51:58;6.63;;;2.63;;
9823;SDS011;4951;50.778;7.196;2022-07-29T06:54:25;3.97;;;2.47;;
9823;SDS011;4951;50.778;7.196;2022-07-29T06:56:52;6.10;;;2.67;;
9823;SDS011;4951;50.778;7.196;2022-07-29T06:59:19;7.82;;;2.33;;
9823;SDS011;4951;50.778;7.196;2022-07-29T07:01:48;7.78;;;2.33;;
9823;SDS011;4951;50.778;7.196;2022-07-29T07:04:15;5.70;;;2.10;;
9823;SDS011;4951;50.778;7.196;2022-07-29T07:06:42;4.32;;;2.50;;
9823;SDS011;4951;50.778;7.196;2022-07-29T07:09:09;5.53;;;2.17;;
9823;SDS011;4951;50.778;7.196;2022-07-29T07:11:37;4.88;;;2.45;;
9823;SDS011;4951;50.778;7.196;2022-07-29T07:14:04;5.97;;;2.10;;
9823;SDS011;4951;50.778;7.196;2022-07-29T07:16:31;5.25;;;2.50;;
9823;SDS011;4951;50.778;7.196;2022-07-29T07:18:59;4.88;;;2.30;;
9823;SDS011;4951;50.778;7.196;2022-07-29T07:21:27;9.63;;;2.20;;
9823;SDS011;4951;50.778;7.196;2022-07-29T07:23:55;6.20;;;2.55;;
9823;SDS011;4951;50.778;7.196;2022-07-29T07:26:22;6.10;;;2.38;;
9823;SDS011;4951;50.778;7.196;2022-07-29T07:28:49;8.10;;;2.42;;
9823;SDS011;4951;50.778;7.196;2022-07-29T07:31:21;7.97;;;2.50;;
9823;SDS011;4951;50.778;7.196;2022-07-29T07:33:49;3.80;;;2.20;;
9823;SDS011;4951;50.778;7.196;2022-07-29T07:36:18;6.68;;;2.42;;
9823;SDS011;4951;50.778;7.196;2022-07-29T07:39:00;5.55;;;1.95;;
9823;SDS011;4951;50.778;7.196;2022-07-29T07:41:31;4.45;;;2.35;;
9823;SDS011;4951;50.778;7.196;2022-07-29T07:43:58;4.53;;;2.35;;
9823;SDS011;4951;50.778;7.196;2022-07-29T07:46:26;7.63;;;2.30;;
9823;SDS011;4951;50.778;7.196;2022-07-29T07:48:53;6.53;;;2.40;;
9823;SDS011;4951;50.778;7.196;2022-07-29T07:51:21;7.22;;;2.47;;
9823;SDS011;4951;50.778;7.196;2022-07-29T07:53:49;6.63;;;2.88;;
9823;SDS011;4951;50.778;7.196;2022-07-29T07:56:16;5.15;;;2.03;;
9823;SDS011;4951;50.778;7.196;2022-07-29T07:58:43;4.35;;;2.20;;
9823;SDS011;4951;50.778;7.196;2022-07-29T08:01:10;3.78;;;2.10;;
9823;SDS011;4951;50.778;7.196;2022-07-29T08:03:38;3.75;;;2.25;;
9823;SDS011;4951;50.778;7.196;2022-07-29T08:06:05;4.03;;;1.95;;
9823;SDS011;4951;50.778;7.196;2022-07-29T08:08:33;4.90;;;1.98;;
9823;SDS011;4951;50.778;7.196;2022-07-29T08:11:00;4.25;;;2.20;;
9823;SDS011;4951;50.778;7.196;2022-07-29T08:13:28;4.50;;;2.17;;
9823;SDS011;4951;50.778;7.196;2022-07-29T08:15:57;3.30;;;2.10;;
9823;SDS011;4951;50.778;7.196;2022-07-29T08:18:28;4.80;;;2.17;;
9823;SDS011;4951;50.778;7.196;2022-07-29T08:20:58;5.38;;;1.80;;
9823;SDS011;4951;50.778;7.196;2022-07-29T08:23:25;4.07;;;2.00;;
9823;SDS011;4951;50.778;7.196;2022-07-29T08:26:01;5.10;;;2.17;;
9823;SDS011;4951;50.778;7.196;2022-07-29T08:28:28;5.97;;;2.35;;
9823;SDS011;4951;50.778;7.196;2022-07-29T08:30:55;3.72;;;1.88;;
9823;SDS011;4951;50.778;7.196;2022-07-29T08:33:23;3.15;;;1.95;;
9823;SDS011;4951;50.778;7.196;2022-07-29T08:35:50;2.90;;;2.08;;
9823;SDS011;4951;50.778;7.196;2022-07-29T08:38:17;4.20;;;2.03;;
9823;SDS011;4951;50.778;7.196;2022-07-29T08:40:44;4.13;;;2.00;;
9823;SDS011;4951;50.778;7.196;2022-07-29T08:43:13;2.72;;;2.03;;
9823;SDS011;4951;50.778;7.196;2022-07-29T08:45:44;3.13;;;1.88;;
9823;SDS011;4951;50.778;7.196;2022-07-29T08:48:12;5.45;;;2.10;;
9823;SDS011;4951;50.778;7.196;2022-07-29T08:50:40;5.68;;;2.15;;
9823;SDS011;4951;50.778;7.196;2022-07-29T08:53:10;4.53;;;2.45;;
9823;SDS011;4951;50.778;7.196;2022-07-29T08:55:39;4.15;;;2.30;;
9823;SDS011;4951;50.778;7.196;2022-07-29T08:58:08;5.10;;;2.05;;
9823;SDS011;4951;50.778;7.196;2022-07-29T09:00:37;5.28;;;2.10;;
9823;SDS011;4951;50.778;7.196;2022-07-29T09:03:09;6.70;;;2.55;;
9823;SDS011;4951;50.778;7.196;2022-07-29T09:05:39;4.85;;;2.40;;
9823;SDS011;4951;50.778;7.196;2022-07-29T09:08:08;5.72;;;2.35;;
9823;SDS011;4951;50.778;7.196;2022-07-29T09:10:36;7.03;;;2.10;;
9823;SDS011;4951;50.778;7.196;2022-07-29T09:13:03;6.28;;;2.20;;
9823;SDS011;4951;50.778;7.196;2022-07-29T09:15:30;5.10;;;2.20;;
9823;SDS011;4951;50.778;7.196;2022-07-29T09:17:58;3.97;;;2.00;;
9823;SDS011;4951;50.778;7.196;2022-07-29T09:20:26;4.50;;;2.13;;
9823;SDS011;4951;50.778;7.196;2022-07-29T09:23:14;3.55;;;2.47;;
9823;SDS011;4951;50.778;7.196;2022-07-29T09:25:41;3.70;;;2.30;;
9823;SDS011;4951;50.778;7.196;2022-07-29T09:28:08;4.30;;;1.98;;
9823;SDS011;4951;50.778;7.196;2022-07-29T09:30:37;5.28;;;2.22;;
9823;SDS011;4951;50.778;7.196;2022-07-29T09:33:19;7.65;;;2.45;;
9823;SDS011;4951;50.778;7.196;2022-07-29T09:35:59;3.72;;;1.92;;
9823;SDS011;4951;50.778;7.196;2022-07-29T09:38:29;3.97;;;2.22;;
9823;SDS011;4951;50.778;7.196;2022-07-29T09:40:56;4.32;;;2.08;;
9823;SDS011;4951;50.778;7.196;2022-07-29T09:43:24;3.40;;;2.22;;
9823;SDS011;4951;50.778;7.196;2022-07-29T09:45:51;3.45;;;2.20;;
9823;SDS011;4951;50.778;7.196;2022-07-29T09:48:20;4.30;;;2.10;;
9823;SDS011;4951;50.778;7.196;2022-07-29T09:50:49;3.22;;;2.30;;
9823;SDS011;4951;50.778;7.196;2022-07-29T09:53:32;4.70;;;2.50;;
9823;SDS011;4951;50.778;7.196;2022-07-29T09:56:00;3.20;;;2.30;;
9823;SDS011;4951;50.778;7.196;2022-07-29T09:58:28;3.00;;;2.10;;
9823;SDS011;4951;50.778;7.196;2022-07-29T10:00:55;4.03;;;2.53;;
9823;SDS011;4951;50.778;7.196;2022-07-29T10:03:24;5.15;;;2.53;;
9823;SDS011;4951;50.778;7.196;2022-07-29T10:06:04;3.58;;;2.00;;
9823;SDS011;4951;50.778;7.196;2022-07-29T10:08:33;5.20;;;2.03;;
9823;SDS011;4951;50.778;7.196;2022-07-29T10:11:08;6.53;;;2.65;;
9823;SDS011;4951;50.778;7.196;2022-07-29T10:13:36;8.63;;;2.63;;
9823;SDS011;4951;50.778;7.196;2022-07-29T10:16:03;5.97;;;2.53;;
9823;SDS011;4951;50.778;7.196;2022-07-29T10:18:33;8.52;;;2.63;;
9823;SDS011;4951;50.778;7.196;2022-07-29T10:21:01;5.40;;;2.75;;
9823;SDS011;4951;50.778;7.196;2022-07-29T10:23:29;10.15;;;3.00;;
9823;SDS011;4951;50.778;7.196;2022-07-29T10:25:56;8.32;;;3.00;;
9823;SDS011;4951;50.778;7.196;2022-07-29T10:28:23;6.82;;;2.83;;
9823;SDS011;4951;50.778;7.196;2022-07-29T10:30:51;7.35;;;2.70;;
9823;SDS011;4951;50.778;7.196;2022-07-29T10:33:29;7.20;;;2.90;;
9823;SDS011;4951;50.778;7.196;2022-07-29T10:36:19;9.55;;;2.92;;
9823;SDS011;4951;50.778;7.196;2022-07-29T10:39:00;6.72;;;2.63;;
9823;SDS011;4951;50.778;7.196;2022-07-29T10:41:42;3.72;;;2.20;;
9823;SDS011;4951;50.778;7.196;2022-07-29T10:44:20;6.30;;;2.53;;
9823;SDS011;4951;50.778;7.196;2022-07-29T10:46:49;4.05;;;2.20;;
9823;SDS011;4951;50.778;7.196;2022-07-29T10:49:19;5.10;;;2.60;;
9823;SDS011;4951;50.778;7.196;2022-07-29T10:51:53;6.15;;;2.70;;
9823;SDS011;4951;50.778;7.196;2022-07-29T10:54:36;7.57;;;2.83;;
9823;SDS011;4951;50.778;7.196;2022-07-29T10:57:15;8.35;;;2.53;;
9823;SDS011;4951;50.778;7.196;2022-07-29T10:59:44;4.38;;;2.60;;
9823;SDS011;4951;50.778;7.196;2022-07-29T11:05:13;7.63;;;2.38;;
9823;SDS011;4951;50.778;7.196;2022-07-29T11:10:47;8.88;;;3.00;;
9823;SDS011;4951;50.778;7.196;2022-07-29T11:16:17;5.15;;;2.35;;
9823;SDS011;4951;50.778;7.196;2022-07-29T11:21:47;8.07;;;2.65;;
9823;SDS011;4951;50.778;7.196;2022-07-29T11:24:15;4.22;;;2.42;;
9823;SDS011;4951;50.778;7.196;2022-07-29T11:26:46;5.57;;;2.88;;
9823;SDS011;4951;50.778;7.196;2022-07-29T11:29:47;6.57;;;2.70;;
9823;SDS011;4951;50.778;7.196;2022-07-29T11:32:16;7.03;;;2.83;;
9823;SDS011;4951;50.778;7.196;2022-07-29T11:34:45;9.85;;;2.88;;
9823;SDS011;4951;50.778;7.196;2022-07-29T11:37:19;5.55;;;2.67;;
9823;SDS011;4951;50.778;7.196;2022-07-29T11:42:45;5.95;;;2.50;;
9823;SDS011;4951;50.778;7.196;2022-07-29T11:45:14;5.10;;;2.75;;
9823;SDS011;4951;50.778;7.196;2022-07-29T11:47:47;6.90;;;3.10;;
9823;SDS011;4951;50.778;7.196;2022-07-29T11:50:17;8.38;;;2.50;;
9823;SDS011;4951;50.778;7.196;2022-07-29T11:52:54;7.82;;;2.63;;
9823;SDS011;4951;50.778;7.196;2022-07-29T11:55:21;7.25;;;2.33;;
9823;SDS011;4951;50.778;7.196;2022-07-29T11:57:52;5.35;;;2.80;;
9823;SDS011;4951;50.778;7.196;2022-07-29T12:00:21;5.40;;;2.75;;
9823;SDS011;4951;50.778;7.196;2022-07-29T12:02:53;5.97;;;2.47;;
9823;SDS011;4951;50.778;7.196;2022-07-29T12:05:25;6.85;;;2.40;;
9823;SDS011;4951;50.778;7.196;2022-07-29T12:08:05;6.20;;;2.60;;
9823;SDS011;4951;50.778;7.196;2022-07-29T12:10:34;6.45;;;2.83;;
9823;SDS011;4951;50.778;7.196;2022-07-29T12:13:02;4.25;;;2.53;;
9823;SDS011;4951;50.778;7.196;2022-07-29T12:15:29;4.65;;;2.50;;
9823;SDS011;4951;50.778;7.196;2022-07-29T12:17:56;4.40;;;2.33;;
9823;SDS011;4951;50.778;7.196;2022-07-29T12:20:24;10.10;;;2.70;;
9823;SDS011;4951;50.778;7.196;2022-07-29T12:22:53;5.90;;;2.95;;
9823;SDS011;4951;50.778;7.196;2022-07-29T12:25:22;5.18;;;2.83;;
9823;SDS011;4951;50.778;7.196;2022-07-29T12:27:59;3.50;;;2.50;;
9823;SDS011;4951;50.778;7.196;2022-07-29T12:30:38;6.32;;;2.95;;
9823;SDS011;4951;50.778;7.196;2022-07-29T12:33:12;4.82;;;2.38;;
9823;SDS011;4951;50.778;7.196;2022-07-29T12:35:41;6.35;;;2.35;;
9823;SDS011;4951;50.778;7.196;2022-07-29T12:38:13;4.38;;;2.40;;
9823;SDS011;4951;50.778;7.196;2022-07-29T12:40:43;5.50;;;2.50;;
9823;SDS011;4951;50.778;7.196;2022-07-29T12:43:12;5.00;;;2.30;;
9823;SDS011;4951;50.778;7.196;2022-07-29T12:45:41;7.80;;;2.65;;
9823;SDS011;4951;50.778;7.196;2022-07-29T12:48:09;6.70;;;2.35;;
9823;SDS011;4951;50.778;7.196;2022-07-29T12:50:51;7.95;;;2.20;;
9823;SDS011;4951;50.778;7.196;2022-07-29T12:53:19;4.65;;;2.30;;
9823;SDS011;4951;50.778;7.196;2022-07-29T12:55:49;4.57;;;2.28;;
9823;SDS011;4951;50.778;7.196;2022-07-29T12:58:33;3.92;;;2.60;;
9823;SDS011;4951;50.778;7.196;2022-07-29T13:01:06;3.80;;;2.47;;
9823;SDS011;4951;50.778;7.196;2022-07-29T13:03:43;6.05;;;2.42;;
9823;SDS011;4951;50.778;7.196;2022-07-29T13:06:27;6.88;;;2.60;;
9823;SDS011;4951;50.778;7.196;2022-07-29T13:09:00;5.80;;;2.38;;
9823;SDS011;4951;50.778;7.196;2022-07-29T13:11:37;4.68;;;2.75;;
9823;SDS011;4951;50.778;7.196;2022-07-29T13:14:06;5.78;;;2.60;;
9823;SDS011;4951;50.778;7.196;2022-07-29T13:16:35;7.10;;;2.40;;
9823;SDS011;4951;50.778;7.196;2022-07-29T13:19:06;3.08;;;2.30;;
9823;SDS011;4951;50.778;7.196;2022-07-29T13:21:36;4.32;;;2.25;;
9823;SDS011;4951;50.778;7.196;2022-07-29T13:24:04;8.45;;;2.67;;
9823;SDS011;4951;50.778;7.196;2022-07-29T13:26:33;5.57;;;2.95;;
9823;SDS011;4951;50.778;7.196;2022-07-29T13:29:01;6.68;;;2.60;;
9823;SDS011;4951;50.778;7.196;2022-07-29T13:31:30;8.15;;;2.60;;
9823;SDS011;4951;50.778;7.196;2022-07-29T13:33:57;6.20;;;2.40;;
9823;SDS011;4951;50.778;7.196;2022-07-29T13:36:24;5.38;;;2.70;;
9823;SDS011;4951;50.778;7.196;2022-07-29T13:38:52;5.50;;;2.80;;
9823;SDS011;4951;50.778;7.196;2022-07-29T13:41:19;6.38;;;2.85;;
9823;SDS011;4951;50.778;7.196;2022-07-29T13:43:46;5.90;;;3.28;;
9823;SDS011;4951;50.778;7.196;2022-07-29T13:46:14;5.40;;;2.50;;
9823;SDS011;4951;50.778;7.196;2022-07-29T13:48:41;4.97;;;2.72;;
9823;SDS011;4951;50.778;7.196;2022-07-29T13:51:08;5.47;;;2.65;;
9823;SDS011;4951;50.778;7.196;2022-07-29T13:53:36;4.20;;;2.40;;
9823;SDS011;4951;50.778;7.196;2022-07-29T13:56:03;4.53;;;2.40;;
9823;SDS011;4951;50.778;7.196;2022-07-29T13:58:32;4.65;;;2.60;;
9823;SDS011;4951;50.778;7.196;2022-07-29T14:01:00;5.53;;;2.53;;
9823;SDS011;4951;50.778;7.196;2022-07-29T14:03:30;5.25;;;2.40;;
9823;SDS011;4951;50.778;7.196;2022-07-29T14:05:57;7.63;;;2.67;;
9823;SDS011;4951;50.778;7.196;2022-07-29T14:08:25;7.25;;;2.67;;
9823;SDS011;4951;50.778;7.196;2022-07-29T14:10:52;2.55;;;2.28;;
9823;SDS011;4951;50.778;7.196;2022-07-29T14:13:19;3.78;;;2.50;;
9823;SDS011;4951;50.778;7.196;2022-07-29T14:15:46;4.57;;;2.20;;
9823;SDS011;4951;50.778;7.196;2022-07-29T14:18:16;6.55;;;2.65;;
9823;SDS011;4951;50.778;7.196;2022-07-29T14:20:44;4.35;;;2.47;;
9823;SDS011;4951;50.778;7.196;2022-07-29T14:23:12;3.85;;;2.30;;
9823;SDS011;4951;50.778;7.196;2022-07-29T14:25:40;4.05;;;2.35;;
9823;SDS011;4951;50.778;7.196;2022-07-29T14:28:07;4.47;;;2.38;;
9823;SDS011;4951;50.778;7.196;2022-07-29T14:30:34;4.28;;;2.22;;
9823;SDS011;4951;50.778;7.196;2022-07-29T14:33:01;5.15;;;2.42;;
9823;SDS011;4951;50.778;7.196;2022-07-29T14:35:28;4.07;;;2.30;;
9823;SDS011;4951;50.778;7.196;2022-07-29T14:37:56;2.42;;;2.20;;
9823;SDS011;4951;50.778;7.196;2022-07-29T14:40:26;4.57;;;2.22;;
9823;SDS011;4951;50.778;7.196;2022-07-29T14:42:53;6.03;;;2.40;;
9823;SDS011;4951;50.778;7.196;2022-07-29T14:45:20;4.38;;;2.45;;
9823;SDS011;4951;50.778;7.196;2022-07-29T14:47:48;4.35;;;2.42;;
9823;SDS011;4951;50.778;7.196;2022-07-29T14:50:15;3.47;;;2.47;;
9823;SDS011;4951;50.778;7.196;2022-07-29T14:52:43;6.25;;;2.55;;
9823;SDS011;4951;50.778;7.196;2022-07-29T14:55:12;5.32;;;2.50;;
9823;SDS011;4951;50.778;7.196;2022-07-29T14:57:39;4.75;;;2.50;;
9823;SDS011;4951;50.778;7.196;2022-07-29T15:00:06;5.85;;;2.60;;
9823;SDS011;4951;50.778;7.196;2022-07-29T15:02:35;3.50;;;2.90;;
9823;SDS011;4951;50.778;7.196;2022-07-29T15:05:03;4.15;;;2.72;;
9823;SDS011;4951;50.778;7.196;2022-07-29T15:07:32;3.88;;;2.72;;
9823;SDS011;4951;50.778;7.196;2022-07-29T15:09:59;7.28;;;2.60;;
9823;SDS011;4951;50.778;7.196;2022-07-29T15:12:28;3.30;;;2.40;;
9823;SDS011;4951;50.778;7.196;2022-07-29T15:14:56;6.53;;;3.38;;
9823;SDS011;4951;50.778;7.196;2022-07-29T15:17:23;12.70;;;3.40;;
9823;SDS011;4951;50.778;7.196;2022-07-29T15:19:50;7.88;;;3.22;;
9823;SDS011;4951;50.778;7.196;2022-07-29T15:22:17;6.70;;;2.83;;
9823;SDS011;4951;50.778;7.196;2022-07-29T15:24:44;5.80;;;3.33;;
9823;SDS011;4951;50.778;7.196;2022-07-29T15:27:11;6.75;;;3.30;;
9823;SDS011;4951;50.778;7.196;2022-07-29T15:29:40;8.00;;;3.30;;
9823;SDS011;4951;50.778;7.196;2022-07-29T15:32:08;8.43;;;2.95;;
9823;SDS011;4951;50.778;7.196;2022-07-29T15:34:36;5.78;;;2.88;;
9823;SDS011;4951;50.778;7.196;2022-07-29T15:37:04;7.28;;;3.40;;
9823;SDS011;4951;50.778;7.196;2022-07-29T15:39:31;6.38;;;3.30;;
9823;SDS011;4951;50.778;7.196;2022-07-29T15:42:01;5.47;;;3.17;;
9823;SDS011;4951;50.778;7.196;2022-07-29T15:44:29;8.93;;;3.45;;
9823;SDS011;4951;50.778;7.196;2022-07-29T15:46:58;7.32;;;3.30;;